sensor_id;sensor_type;location;lat;lon;timestamp;pressure;altitude;pressure_sealevel;temperature;humidity
29903;BME280;30288;50.514;9.678;2024-03-25T00:01:36;97687.69;;;4.96;100.00
29903;BME280;30288;50.514;9.678;2024-03-25T00:03:38;97695.03;;;5.02;100.00
29903;BME280;30288;50.514;9.678;2024-03-25T00:05:40;97691.53;;;5.09;100.00
29903;BME280;30288;50.514;9.678;2024-03-25T00:07:43;97694.97;;;5.05;100.00
29903;BME280;30288;50.514;9.678;2024-03-25T00:09:44;97693.41;;;5.01;100.00
29903;BME280;30288;50.514;9.678;2024-03-25T00:11:46;97694.84;;;5.11;100.00
29903;BME280;30288;50.514;9.678;2024-03-25T00:13:52;97694.97;;;5.05;100.00
29903;BME280;30288;50.514;9.678;2024-03-25T00:15:54;97692.66;;;4.98;100.00
29903;BME280;30288;50.514;9.678;2024-03-25T00:18:02;97702.84;;;4.89;100.00
29903;BME280;30288;50.514;9.678;2024-03-25T00:20:06;97707.00;;;4.88;100.00
29903;BME280;30288;50.514;9.678;2024-03-25T00:22:07;97700.47;;;4.82;100.00
29903;BME280;30288;50.514;9.678;2024-03-25T00:24:09;97699.72;;;4.79;100.00
29903;BME280;30288;50.514;9.678;2024-03-25T00:26:11;97699.84;;;4.73;100.00
29903;BME280;30288;50.514;9.678;2024-03-25T00:28:17;97693.22;;;4.72;100.00
29903;BME280;30288;50.514;9.678;2024-03-25T00:30:23;97686.53;;;4.74;100.00
29903;BME280;30288;50.514;9.678;2024-03-25T00:32:25;97691.63;;;4.68;100.00
29903;BME280;30288;50.514;9.678;2024-03-25T00:34:26;97690.00;;;4.67;100.00
29903;BME280;30288;50.514;9.678;2024-03-25T00:36:27;97690.84;;;4.66;100.00
29903;BME280;30288;50.514;9.678;2024-03-25T00:38:31;97692.63;;;4.61;100.00
29903;BME280;30288;50.514;9.678;2024-03-25T00:40:33;97696.69;;;4.65;100.00
29903;BME280;30288;50.514;9.678;2024-03-25T00:42:35;97689.25;;;4.63;100.00
29903;BME280;30288;50.514;9.678;2024-03-25T00:44:37;97697.63;;;4.61;100.00
29903;BME280;30288;50.514;9.678;2024-03-25T00:46:41;97694.31;;;4.59;100.00
29903;BME280;30288;50.514;9.678;2024-03-25T00:48:43;97694.31;;;4.59;100.00
29903;BME280;30288;50.514;9.678;2024-03-25T00:50:45;97695.94;;;4.61;100.00
29903;BME280;30288;50.514;9.678;2024-03-25T00:52:46;97699.31;;;4.59;100.00
29903;BME280;30288;50.514;9.678;2024-03-25T00:54:51;97693.44;;;4.61;100.00
29903;BME280;30288;50.514;9.678;2024-03-25T00:56:52;97692.63;;;4.61;100.00
29903;BME280;30288;50.514;9.678;2024-03-25T00:58:59;97690.91;;;4.63;100.00
29903;BME280;30288;50.514;9.678;2024-03-25T01:01:00;97697.56;;;4.64;100.00
29903;BME280;30288;50.514;9.678;2024-03-25T01:03:05;97692.56;;;4.64;100.00
29903;BME280;30288;50.514;9.678;2024-03-25T01:05:07;97689.28;;;4.62;100.00
29903;BME280;30288;50.514;9.678;2024-03-25T01:07:14;97689.16;;;4.68;100.00
29903;BME280;30288;50.514;9.678;2024-03-25T01:09:18;97694.13;;;4.68;100.00
29903;BME280;30288;50.514;9.678;2024-03-25T01:11:20;97687.50;;;4.67;100.00
29903;BME280;30288;50.514;9.678;2024-03-25T01:13:22;97689.16;;;4.68;100.00
29903;BME280;30288;50.514;9.678;2024-03-25T01:15:24;97699.13;;;4.68;100.00
29903;BME280;30288;50.514;9.678;2024-03-25T01:17:28;97694.22;;;4.65;100.00
29903;BME280;30288;50.514;9.678;2024-03-25T01:19:33;97690.16;;;4.59;100.00
29903;BME280;30288;50.514;9.678;2024-03-25T01:21:35;97699.41;;;4.56;100.00
29903;BME280;30288;50.514;9.678;2024-03-25T01:23:37;97704.38;;;4.56;100.00
29903;BME280;30288;50.514;9.678;2024-03-25T01:25:40;97707.63;;;4.58;100.00
29903;BME280;30288;50.514;9.678;2024-03-25T01:27:41;97706.06;;;4.55;100.00
29903;BME280;30288;50.514;9.678;2024-03-25T01:29:43;97709.38;;;4.56;100.00
29903;BME280;30288;50.514;9.678;2024-03-25T01:31:48;97705.94;;;4.60;100.00
29903;BME280;30288;50.514;9.678;2024-03-25T01:33:49;97701.84;;;4.57;100.00
29903;BME280;30288;50.514;9.678;2024-03-25T01:35:53;97706.00;;;4.57;100.00
29903;BME280;30288;50.514;9.678;2024-03-25T01:37:56;97711.06;;;4.54;100.00
29903;BME280;30288;50.514;9.678;2024-03-25T01:39:58;97715.84;;;4.63;100.00
29903;BME280;30288;50.514;9.678;2024-03-25T01:41:59;97710.94;;;4.60;100.00
29903;BME280;30288;50.514;9.678;2024-03-25T01:44:01;97717.56;;;4.61;100.00
29903;BME280;30288;50.514;9.678;2024-03-25T01:46:06;97717.56;;;4.61;100.00
29903;BME280;30288;50.514;9.678;2024-03-25T01:48:13;97712.50;;;4.64;100.00
29903;BME280;30288;50.514;9.678;2024-03-25T01:50:15;97710.88;;;4.63;100.00
29903;BME280;30288;50.514;9.678;2024-03-25T01:52:20;97710.88;;;4.63;100.00
29903;BME280;30288;50.514;9.678;2024-03-25T01:54:23;97710.78;;;4.66;100.00
29903;BME280;30288;50.514;9.678;2024-03-25T01:56:26;97711.72;;;4.62;100.00
29903;BME280;30288;50.514;9.678;2024-03-25T01:58:30;97715.09;;;4.59;100.00
29903;BME280;30288;50.514;9.678;2024-03-25T02:00:33;97723.41;;;4.60;100.00
29903;BME280;30288;50.514;9.678;2024-03-25T02:02:35;97720.06;;;4.61;100.00
29903;BME280;30288;50.514;9.678;2024-03-25T02:04:39;97727.53;;;4.61;100.00
29903;BME280;30288;50.514;9.678;2024-03-25T02:06:44;97732.53;;;4.61;100.00
29903;BME280;30288;50.514;9.678;2024-03-25T02:08:49;97728.41;;;4.58;100.00
29903;BME280;30288;50.514;9.678;2024-03-25T02:10:52;97726.81;;;4.56;100.00
29903;BME280;30288;50.514;9.678;2024-03-25T02:12:54;97725.81;;;4.63;100.00
29903;BME280;30288;50.514;9.678;2024-03-25T02:14:57;97727.44;;;4.65;100.00
29903;BME280;30288;50.514;9.678;2024-03-25T02:16:59;97720.91;;;4.60;100.00
29903;BME280;30288;50.514;9.678;2024-03-25T02:19:03;97724.25;;;4.59;100.00
29903;BME280;30288;50.514;9.678;2024-03-25T02:21:05;97724.25;;;4.59;100.00
29903;BME280;30288;50.514;9.678;2024-03-25T02:23:07;97724.31;;;4.56;100.00
29903;BME280;30288;50.514;9.678;2024-03-25T02:25:11;97730.16;;;4.55;100.00
29903;BME280;30288;50.514;9.678;2024-03-25T02:27:19;97732.66;;;4.55;100.00
29903;BME280;30288;50.514;9.678;2024-03-25T02:29:32;97731.84;;;4.53;100.00
29903;BME280;30288;50.514;9.678;2024-03-25T02:31:34;97737.69;;;4.52;100.00
29903;BME280;30288;50.514;9.678;2024-03-25T02:33:36;97730.19;;;4.53;100.00
29903;BME280;30288;50.514;9.678;2024-03-25T02:35:38;97730.25;;;4.50;100.00
29903;BME280;30288;50.514;9.678;2024-03-25T02:37:42;97727.69;;;4.52;100.00
29903;BME280;30288;50.514;9.678;2024-03-25T02:39:44;97732.69;;;4.52;100.00
29903;BME280;30288;50.514;9.678;2024-03-25T02:41:46;97730.25;;;4.50;100.00
29903;BME280;30288;50.514;9.678;2024-03-25T02:43:50;97727.69;;;4.52;100.00
29903;BME280;30288;50.514;9.678;2024-03-25T02:45:52;97726.09;;;4.51;100.00
29903;BME280;30288;50.514;9.678;2024-03-25T02:47:55;97729.34;;;4.53;100.00
29903;BME280;30288;50.514;9.678;2024-03-25T02:49:57;97724.44;;;4.50;100.00
29903;BME280;30288;50.514;9.678;2024-03-25T02:51:58;97735.25;;;4.49;100.00
29903;BME280;30288;50.514;9.678;2024-03-25T02:54:00;97734.28;;;4.56;100.00
29903;BME280;30288;50.514;9.678;2024-03-25T02:56:04;97732.66;;;4.55;100.00
29903;BME280;30288;50.514;9.678;2024-03-25T02:58:09;97727.69;;;4.52;100.00
29903;BME280;30288;50.514;9.678;2024-03-25T03:00:14;97732.66;;;4.55;100.00
29903;BME280;30288;50.514;9.678;2024-03-25T03:02:15;97735.06;;;4.58;100.00
29903;BME280;30288;50.514;9.678;2024-03-25T03:04:17;97735.13;;;4.55;100.00
29903;BME280;30288;50.514;9.678;2024-03-25T03:06:25;97734.28;;;4.56;100.00
29903;BME280;30288;50.514;9.678;2024-03-25T03:08:26;97740.97;;;4.54;100.00
29903;BME280;30288;50.514;9.678;2024-03-25T03:10:28;97736.81;;;4.54;100.00
29903;BME280;30288;50.514;9.678;2024-03-25T03:12:30;97733.56;;;4.51;100.00
29903;BME280;30288;50.514;9.678;2024-03-25T03:14:31;97735.19;;;4.52;100.00
29903;BME280;30288;50.514;9.678;2024-03-25T03:16:36;97736.91;;;4.50;100.00
29903;BME280;30288;50.514;9.678;2024-03-25T03:18:39;97732.75;;;4.49;100.00
29903;BME280;30288;50.514;9.678;2024-03-25T03:20:41;97734.53;;;4.44;100.00
29903;BME280;30288;50.514;9.678;2024-03-25T03:22:43;97729.59;;;4.40;100.00
29903;BME280;30288;50.514;9.678;2024-03-25T03:24:44;97746.31;;;4.35;100.00
29903;BME280;30288;50.514;9.678;2024-03-25T03:26:46;97741.44;;;4.29;100.00
29903;BME280;30288;50.514;9.678;2024-03-25T03:28:50;97755.63;;;4.26;100.00
29903;BME280;30288;50.514;9.678;2024-03-25T03:30:52;97758.22;;;4.21;100.00
29903;BME280;30288;50.514;9.678;2024-03-25T03:32:56;97751.53;;;4.23;100.00
29903;BME280;30288;50.514;9.678;2024-03-25T03:34:58;97760.63;;;4.24;100.00
29903;BME280;30288;50.514;9.678;2024-03-25T03:37:00;97761.41;;;4.28;100.00
29903;BME280;30288;50.514;9.678;2024-03-25T03:39:19;97763.88;;;4.29;100.00
29903;BME280;30288;50.514;9.678;2024-03-25T03:41:21;97764.69;;;4.31;100.00
29903;BME280;30288;50.514;9.678;2024-03-25T03:43:22;97767.16;;;4.31;100.00
29903;BME280;30288;50.514;9.678;2024-03-25T03:45:25;97764.63;;;4.34;100.00
29903;BME280;30288;50.514;9.678;2024-03-25T03:47:29;97766.25;;;4.35;100.00
29903;BME280;30288;50.514;9.678;2024-03-25T03:49:34;97769.53;;;4.37;100.00
29903;BME280;30288;50.514;9.678;2024-03-25T03:51:35;97771.94;;;4.42;100.00
29903;BME280;30288;50.514;9.678;2024-03-25T03:53:37;97771.06;;;4.45;100.00
29903;BME280;30288;50.514;9.678;2024-03-25T03:55:41;97766.19;;;4.38;100.00
29903;BME280;30288;50.514;9.678;2024-03-25T03:57:43;97762.91;;;4.36;100.00
29903;BME280;30288;50.514;9.678;2024-03-25T03:59:44;97767.91;;;4.36;100.00
29903;BME280;30288;50.514;9.678;2024-03-25T04:01:46;97771.28;;;4.32;100.00
29903;BME280;30288;50.514;9.678;2024-03-25T04:03:48;97767.19;;;4.30;100.00
29903;BME280;30288;50.514;9.678;2024-03-25T04:05:53;97769.59;;;4.34;100.00
29903;BME280;30288;50.514;9.678;2024-03-25T04:07:59;97778.66;;;4.38;100.00
29903;BME280;30288;50.514;9.678;2024-03-25T04:10:01;97778.69;;;4.37;100.00
29903;BME280;30288;50.514;9.678;2024-03-25T04:12:04;97774.50;;;4.37;100.00
29903;BME280;30288;50.514;9.678;2024-03-25T04:14:06;97780.31;;;4.38;100.00
29903;BME280;30288;50.514;9.678;2024-03-25T04:16:10;97782.03;;;4.36;100.00
29903;BME280;30288;50.514;9.678;2024-03-25T04:18:16;97771.25;;;4.35;100.00
29903;BME280;30288;50.514;9.678;2024-03-25T04:20:18;97777.88;;;4.36;100.00
29903;BME280;30288;50.514;9.678;2024-03-25T04:22:23;97781.16;;;4.38;100.00
29903;BME280;30288;50.514;9.678;2024-03-25T04:24:26;97780.31;;;4.38;100.00
29903;BME280;30288;50.514;9.678;2024-03-25T04:26:28;97772.91;;;4.36;100.00
29903;BME280;30288;50.514;9.678;2024-03-25T04:28:30;97771.19;;;4.38;100.00
29903;BME280;30288;50.514;9.678;2024-03-25T04:30:31;97776.22;;;4.37;100.00
29903;BME280;30288;50.514;9.678;2024-03-25T04:32:34;97781.19;;;4.37;100.00
29903;BME280;30288;50.514;9.678;2024-03-25T04:34:36;97780.22;;;4.43;100.00
29903;BME280;30288;50.514;9.678;2024-03-25T04:36:38;97776.06;;;4.45;100.00
29903;BME280;30288;50.514;9.678;2024-03-25T04:38:44;97785.19;;;4.46;100.00
29903;BME280;30288;50.514;9.678;2024-03-25T04:40:46;97783.50;;;4.46;100.00
29903;BME280;30288;50.514;9.678;2024-03-25T04:42:47;97781.84;;;4.47;100.00
29903;BME280;30288;50.514;9.678;2024-03-25T04:44:49;97787.59;;;4.49;100.00
29903;BME280;30288;50.514;9.678;2024-03-25T04:46:54;97787.69;;;4.46;100.00
29903;BME280;30288;50.514;9.678;2024-03-25T04:48:55;97781.03;;;4.45;100.00
29903;BME280;30288;50.514;9.678;2024-03-25T04:50:57;97792.66;;;4.46;100.00
29903;BME280;30288;50.514;9.678;2024-03-25T04:52:59;97787.69;;;4.46;100.00
29903;BME280;30288;50.514;9.678;2024-03-25T04:55:05;97786.84;;;4.47;100.00
29903;BME280;30288;50.514;9.678;2024-03-25T04:57:07;97788.50;;;4.46;100.00
29903;BME280;30288;50.514;9.678;2024-03-25T04:59:13;97791.81;;;4.47;100.00
29903;BME280;30288;50.514;9.678;2024-03-25T05:01:18;97792.69;;;4.44;100.00
29903;BME280;30288;50.514;9.678;2024-03-25T05:03:19;97795.94;;;4.48;100.00
29903;BME280;30288;50.514;9.678;2024-03-25T05:05:21;97797.56;;;4.49;100.00
29903;BME280;30288;50.514;9.678;2024-03-25T05:07:23;97795.94;;;4.48;100.00
29903;BME280;30288;50.514;9.678;2024-03-25T05:09:25;97790.91;;;4.51;100.00
29903;BME280;30288;50.514;9.678;2024-03-25T05:11:29;97786.69;;;4.53;100.00
29903;BME280;30288;50.514;9.678;2024-03-25T05:13:30;97788.31;;;4.55;100.00
29903;BME280;30288;50.514;9.678;2024-03-25T05:15:31;97795.00;;;4.53;100.00
29903;BME280;30288;50.514;9.678;2024-03-25T05:17:35;97799.28;;;4.47;100.00
29903;BME280;30288;50.514;9.678;2024-03-25T05:19:37;97798.47;;;4.46;100.00
29903;BME280;30288;50.514;9.678;2024-03-25T05:21:38;97810.94;;;4.45;100.00
29903;BME280;30288;50.514;9.678;2024-03-25T05:23:40;97809.38;;;4.40;100.00
29903;BME280;30288;50.514;9.678;2024-03-25T05:25:42;97809.38;;;4.40;100.00
29903;BME280;30288;50.514;9.678;2024-03-25T05:27:47;97806.97;;;4.36;100.00
29903;BME280;30288;50.514;9.678;2024-03-25T05:29:49;97817.69;;;4.39;100.00
29903;BME280;30288;50.514;9.678;2024-03-25T05:31:59;97827.66;;;4.39;100.00
29903;BME280;30288;50.514;9.678;2024-03-25T05:34:00;97817.69;;;4.39;100.00
29903;BME280;30288;50.514;9.678;2024-03-25T05:36:06;97824.31;;;4.40;100.00
29903;BME280;30288;50.514;9.678;2024-03-25T05:38:10;97834.31;;;4.40;100.00
29903;BME280;30288;50.514;9.678;2024-03-25T05:40:12;97828.47;;;4.42;100.00
29903;BME280;30288;50.514;9.678;2024-03-25T05:42:14;97827.59;;;4.43;100.00
29903;BME280;30288;50.514;9.678;2024-03-25T05:44:18;97829.25;;;4.44;100.00
29903;BME280;30288;50.514;9.678;2024-03-25T05:46:28;97826.72;;;4.47;100.00
29903;BME280;30288;50.514;9.678;2024-03-25T05:48:31;97826.59;;;4.53;100.00
29903;BME280;30288;50.514;9.678;2024-03-25T05:50:32;97820.66;;;4.60;100.00
29903;BME280;30288;50.514;9.678;2024-03-25T05:52:34;97830.56;;;4.63;100.00
29903;BME280;30288;50.514;9.678;2024-03-25T05:54:39;97825.66;;;4.57;100.00
29903;BME280;30288;50.514;9.678;2024-03-25T05:56:41;97825.84;;;4.48;100.00
29903;BME280;30288;50.514;9.678;2024-03-25T05:58:43;97829.25;;;4.44;100.00
29903;BME280;30288;50.514;9.678;2024-03-25T06:00:49;97830.22;;;4.36;100.00
29903;BME280;30288;50.514;9.678;2024-03-25T06:02:52;97837.13;;;4.22;100.00
29903;BME280;30288;50.514;9.678;2024-03-25T06:04:54;97833.00;;;4.18;100.00
29903;BME280;30288;50.514;9.678;2024-03-25T06:06:57;97834.72;;;4.16;100.00
29903;BME280;30288;50.514;9.678;2024-03-25T06:09:00;97836.56;;;4.05;100.00
29903;BME280;30288;50.514;9.678;2024-03-25T06:11:02;97836.63;;;4.02;100.00
29903;BME280;30288;50.514;9.678;2024-03-25T06:13:04;97838.28;;;4.00;100.00
29903;BME280;30288;50.514;9.678;2024-03-25T06:15:07;97838.34;;;3.97;100.00
29903;BME280;30288;50.514;9.678;2024-03-25T06:17:14;97840.84;;;3.99;100.00
29903;BME280;30288;50.514;9.678;2024-03-25T06:19:16;97844.94;;;4.01;100.00
29903;BME280;30288;50.514;9.678;2024-03-25T06:21:18;97846.59;;;4.02;100.00
29903;BME280;30288;50.514;9.678;2024-03-25T06:23:24;97843.94;;;4.10;100.00
29903;BME280;30288;50.514;9.678;2024-03-25T06:25:26;97851.31;;;4.17;100.00
29903;BME280;30288;50.514;9.678;2024-03-25T06:27:28;97844.53;;;4.25;100.00
29903;BME280;30288;50.514;9.678;2024-03-25T06:29:31;97846.03;;;4.35;100.00
29903;BME280;30288;50.514;9.678;2024-03-25T06:31:32;97854.06;;;4.50;100.00
29903;BME280;30288;50.514;9.678;2024-03-25T06:33:51;97853.84;;;4.62;100.00
29903;BME280;30288;50.514;9.678;2024-03-25T06:36:09;97853.66;;;4.71;100.00
29903;BME280;30288;50.514;9.678;2024-03-25T06:38:15;97854.38;;;4.79;100.00
29903;BME280;30288;50.514;9.678;2024-03-25T06:40:16;97850.13;;;4.82;100.00
29903;BME280;30288;50.514;9.678;2024-03-25T06:42:18;97856.59;;;4.91;100.00
29903;BME280;30288;50.514;9.678;2024-03-25T06:44:20;97865.56;;;5.01;100.00
29903;BME280;30288;50.514;9.678;2024-03-25T06:46:21;97862.94;;;5.07;100.00
29903;BME280;30288;50.514;9.678;2024-03-25T06:48:23;97866.41;;;5.00;100.00
29903;BME280;30288;50.514;9.678;2024-03-25T06:50:27;97857.03;;;5.11;100.00
29903;BME280;30288;50.514;9.678;2024-03-25T06:52:29;97856.94;;;5.17;100.00
29903;BME280;30288;50.514;9.678;2024-03-25T06:54:30;97860.81;;;5.31;100.00
29903;BME280;30288;50.514;9.678;2024-03-25T06:56:32;97869.78;;;5.39;100.00
29903;BME280;30288;50.514;9.678;2024-03-25T06:58:33;97872.16;;;5.44;100.00
29903;BME280;30288;50.514;9.678;2024-03-25T07:00:36;97875.38;;;5.49;100.00
29903;BME280;30288;50.514;9.678;2024-03-25T07:02:37;97878.72;;;5.48;100.00
29903;BME280;30288;50.514;9.678;2024-03-25T07:04:39;97880.19;;;5.58;100.00
29903;BME280;30288;50.514;9.678;2024-03-25T07:06:44;97875.81;;;5.67;100.00
29903;BME280;30288;50.514;9.678;2024-03-25T07:08:46;97878.53;;;5.57;100.00
29903;BME280;30288;50.514;9.678;2024-03-25T07:10:48;97872.72;;;5.56;100.00
29903;BME280;30288;50.514;9.678;2024-03-25T07:12:49;97884.22;;;5.63;100.00
29903;BME280;30288;50.514;9.678;2024-03-25T07:14:51;97884.97;;;5.67;100.00
29903;BME280;30288;50.514;9.678;2024-03-25T07:16:53;97884.16;;;5.66;100.00
29903;BME280;30288;50.514;9.678;2024-03-25T07:18:55;97887.88;;;5.87;100.00
29903;BME280;30288;50.514;9.678;2024-03-25T07:20:56;97896.03;;;5.95;100.00
29903;BME280;30288;50.514;9.678;2024-03-25T07:23:04;97895.09;;;5.99;100.00
29903;BME280;30288;50.514;9.678;2024-03-25T07:25:07;97894.09;;;6.06;100.00
29903;BME280;30288;50.514;9.678;2024-03-25T07:27:09;97897.25;;;6.13;100.00
29903;BME280;30288;50.514;9.678;2024-03-25T07:29:12;97894.50;;;6.25;100.00
29903;BME280;30288;50.514;9.678;2024-03-25T07:31:16;97903.22;;;6.43;100.00
29903;BME280;30288;50.514;9.678;2024-03-25T07:33:18;97904.03;;;6.43;100.00
29903;BME280;30288;50.514;9.678;2024-03-25T07:35:19;97906.03;;;6.63;100.00
29903;BME280;30288;50.514;9.678;2024-03-25T07:37:22;97905.00;;;6.70;100.00
29903;BME280;30288;50.514;9.678;2024-03-25T07:39:29;97907.59;;;6.67;100.00
29903;BME280;30288;50.514;9.678;2024-03-25T07:41:31;97907.00;;;6.57;100.00
29903;BME280;30288;50.514;9.678;2024-03-25T07:43:33;97905.13;;;6.66;100.00
29903;BME280;30288;50.514;9.678;2024-03-25T07:45:35;97912.47;;;6.73;100.00
29903;BME280;30288;50.514;9.678;2024-03-25T07:47:38;97911.88;;;6.64;100.00
29903;BME280;30288;50.514;9.678;2024-03-25T07:49:39;97914.50;;;6.59;100.00
29903;BME280;30288;50.514;9.678;2024-03-25T07:51:42;97911.28;;;6.54;100.00
29903;BME280;30288;50.514;9.678;2024-03-25T07:53:44;97909.78;;;6.47;100.00
29903;BME280;30288;50.514;9.678;2024-03-25T07:55:51;97907.72;;;6.63;100.00
29903;BME280;30288;50.514;9.678;2024-03-25T07:57:52;97911.25;;;6.88;100.00
29903;BME280;30288;50.514;9.678;2024-03-25T07:59:54;97907.03;;;7.19;100.00
29903;BME280;30288;50.514;9.678;2024-03-25T08:01:56;97909.25;;;7.30;100.00
29903;BME280;30288;50.514;9.678;2024-03-25T08:03:59;97904.53;;;7.48;100.00
29903;BME280;30288;50.514;9.678;2024-03-25T08:06:01;97908.44;;;7.57;100.00
29903;BME280;30288;50.514;9.678;2024-03-25T08:08:05;97907.00;;;7.78;100.00
29903;BME280;30288;50.514;9.678;2024-03-25T08:10:08;97906.69;;;8.15;100.00
29903;BME280;30288;50.514;9.678;2024-03-25T08:12:13;97907.19;;;8.52;100.00
29903;BME280;30288;50.514;9.678;2024-03-25T08:14:15;97895.25;;;8.34;100.00
29903;BME280;30288;50.514;9.678;2024-03-25T08:16:19;97896.59;;;8.44;100.00
29903;BME280;30288;50.514;9.678;2024-03-25T08:18:22;97898.31;;;8.42;100.00
29903;BME280;30288;50.514;9.678;2024-03-25T08:20:24;97903.91;;;8.50;100.00
29903;BME280;30288;50.514;9.678;2024-03-25T08:22:26;97895.53;;;8.74;100.00
29903;BME280;30288;50.514;9.678;2024-03-25T08:24:27;97897.84;;;8.81;100.00
29903;BME280;30288;50.514;9.678;2024-03-25T08:26:30;97900.41;;;8.29;100.00
29903;BME280;30288;50.514;9.678;2024-03-25T08:28:35;97908.59;;;7.80;100.00
29903;BME280;30288;50.514;9.678;2024-03-25T08:30:37;97904.44;;;7.79;100.00
29903;BME280;30288;50.514;9.678;2024-03-25T08:32:39;97898.97;;;7.95;100.00
29903;BME280;30288;50.514;9.678;2024-03-25T08:34:43;97889.84;;;8.18;100.00
29903;BME280;30288;50.514;9.678;2024-03-25T08:36:45;97889.78;;;8.72;100.00
29903;BME280;30288;50.514;9.678;2024-03-25T08:38:47;97880.97;;;8.36;100.00
29903;BME280;30288;50.514;9.678;2024-03-25T08:40:50;97884.59;;;8.26;100.00
29903;BME280;30288;50.514;9.678;2024-03-25T08:42:52;97878.28;;;8.65;100.00
29903;BME280;30288;50.514;9.678;2024-03-25T08:44:56;97882.09;;;8.77;100.00
29903;BME280;30288;50.514;9.678;2024-03-25T08:47:04;97889.25;;;9.34;100.00
29903;BME280;30288;50.514;9.678;2024-03-25T08:49:07;97876.00;;;9.31;100.00
29903;BME280;30288;50.514;9.678;2024-03-25T08:51:08;97890.22;;;9.53;100.00
29903;BME280;30288;50.514;9.678;2024-03-25T08:53:10;97881.19;;;9.26;100.00
29903;BME280;30288;50.514;9.678;2024-03-25T08:55:21;97887.19;;;9.45;100.00
29903;BME280;30288;50.514;9.678;2024-03-25T08:57:23;97884.44;;;9.28;100.00
29903;BME280;30288;50.514;9.678;2024-03-25T08:59:25;97885.09;;;9.10;100.00
29903;BME280;30288;50.514;9.678;2024-03-25T09:01:29;97886.16;;;8.79;100.00
29903;BME280;30288;50.514;9.678;2024-03-25T09:03:31;97896.94;;;8.58;100.00
29903;BME280;30288;50.514;9.678;2024-03-25T09:05:33;97886.06;;;8.33;100.00
29903;BME280;30288;50.514;9.678;2024-03-25T09:07:35;97890.88;;;8.13;100.00
29903;BME280;30288;50.514;9.678;2024-03-25T09:09:37;97890.22;;;8.34;100.00
29903;BME280;30288;50.514;9.678;2024-03-25T09:11:53;97885.63;;;8.95;100.00
29903;BME280;30288;50.514;9.678;2024-03-25T09:13:55;97881.28;;;9.23;100.00
29903;BME280;30288;50.514;9.678;2024-03-25T09:15:56;97884.09;;;9.37;100.00
29903;BME280;30288;50.514;9.678;2024-03-25T09:18:07;97878.72;;;9.46;100.00
29903;BME280;30288;50.514;9.678;2024-03-25T09:20:10;97877.06;;;9.90;100.00
29903;BME280;30288;50.514;9.678;2024-03-25T09:22:13;97875.13;;;10.19;100.00
29903;BME280;30288;50.514;9.678;2024-03-25T09:24:15;97867.03;;;10.10;100.00
29903;BME280;30288;50.514;9.678;2024-03-25T09:26:19;97874.25;;;9.76;100.00
29903;BME280;30288;50.514;9.678;2024-03-25T09:28:21;97884.03;;;8.69;100.00
29903;BME280;30288;50.514;9.678;2024-03-25T09:30:23;97893.66;;;8.04;100.00
29903;BME280;30288;50.514;9.678;2024-03-25T09:32:25;97898.88;;;7.42;100.00
29903;BME280;30288;50.514;9.678;2024-03-25T09:34:29;97903.66;;;7.22;100.00
29903;BME280;30288;50.514;9.678;2024-03-25T09:36:31;97907.69;;;7.26;100.00
29903;BME280;30288;50.514;9.678;2024-03-25T09:38:33;97894.38;;;7.24;100.00
29903;BME280;30288;50.514;9.678;2024-03-25T09:40:40;97901.31;;;7.16;100.00
29903;BME280;30288;50.514;9.678;2024-03-25T09:42:47;97903.28;;;7.34;100.00
29903;BME280;30288;50.514;9.678;2024-03-25T09:44:49;97900.22;;;7.24;100.00
29903;BME280;30288;50.514;9.678;2024-03-25T09:46:53;97903.66;;;7.22;100.00
29903;BME280;30288;50.514;9.678;2024-03-25T09:48:57;97902.44;;;7.35;100.00
29903;BME280;30288;50.514;9.678;2024-03-25T09:51:03;97892.03;;;7.47;100.00
29903;BME280;30288;50.514;9.678;2024-03-25T09:53:05;97899.31;;;7.84;100.00
29903;BME280;30288;50.514;9.678;2024-03-25T09:55:07;97890.91;;;8.39;100.00
29903;BME280;30288;50.514;9.678;2024-03-25T09:57:14;97891.03;;;8.84;100.00
29903;BME280;30288;50.514;9.678;2024-03-25T09:59:23;97886.59;;;8.67;100.00
29903;BME280;30288;50.514;9.678;2024-03-25T10:01:25;97886.16;;;8.79;100.00
29903;BME280;30288;50.514;9.678;2024-03-25T10:03:27;97890.00;;;8.90;100.00
29903;BME280;30288;50.514;9.678;2024-03-25T10:05:28;97892.16;;;8.75;100.00
29903;BME280;30288;50.514;9.678;2024-03-25T10:07:35;97884.94;;;8.66;100.00
29903;BME280;30288;50.514;9.678;2024-03-25T10:09:36;97876.03;;;8.83;100.00
29903;BME280;30288;50.514;9.678;2024-03-25T10:11:38;97878.56;;;9.06;100.00
29903;BME280;30288;50.514;9.678;2024-03-25T10:13:41;97874.22;;;9.78;100.00
29903;BME280;30288;50.514;9.678;2024-03-25T10:15:43;97875.84;;;9.79;100.00
29903;BME280;30288;50.514;9.678;2024-03-25T10:17:45;97869.75;;;9.62;100.00
29903;BME280;30288;50.514;9.678;2024-03-25T10:19:50;97868.22;;;10.02;100.00
29903;BME280;30288;50.514;9.678;2024-03-25T10:22:05;97864.72;;;10.06;100.00
29903;BME280;30288;50.514;9.678;2024-03-25T10:24:09;97858.47;;;10.15;100.00
29903;BME280;30288;50.514;9.678;2024-03-25T10:26:26;97855.44;;;10.28;100.00
29903;BME280;30288;50.514;9.678;2024-03-25T10:28:28;97860.97;;;10.36;100.00
29903;BME280;30288;50.514;9.678;2024-03-25T10:30:38;97841.47;;;10.41;100.00
29903;BME280;30288;50.514;9.678;2024-03-25T10:32:39;97847.97;;;10.86;100.00
29903;BME280;30288;50.514;9.678;2024-03-25T10:34:44;97834.19;;;10.93;100.00
29903;BME280;30288;50.514;9.678;2024-03-25T10:36:46;97846.09;;;10.50;100.00
29903;BME280;30288;50.514;9.678;2024-03-25T10:38:53;97841.06;;;10.50;100.00
29903;BME280;30288;50.514;9.678;2024-03-25T10:40:59;97827.97;;;10.83;100.00
29903;BME280;30288;50.514;9.678;2024-03-25T10:43:02;97827.53;;;10.73;100.00
29903;BME280;30288;50.514;9.678;2024-03-25T10:45:06;97829.13;;;10.56;100.00
29903;BME280;30288;50.514;9.678;2024-03-25T10:47:14;97827.13;;;10.23;100.00
29903;BME280;30288;50.514;9.678;2024-03-25T10:49:27;97836.25;;;10.26;100.00
29903;BME280;30288;50.514;9.678;2024-03-25T10:51:34;97829.59;;;10.03;100.00
29903;BME280;30288;50.514;9.678;2024-03-25T10:53:37;97843.22;;;9.77;100.00